createdAt,value
2023-04-21T00:02:00.787Z,9.04
2023-04-21T00:04:29.938Z,9.03
2023-04-21T00:07:01.510Z,9.04
2023-04-21T00:09:30.515Z,9.01
2023-04-21T00:11:59.409Z,8.98
2023-04-21T00:14:28.116Z,8.98
2023-04-21T00:16:56.714Z,8.96
2023-04-21T00:19:25.823Z,8.96
2023-04-21T00:21:58.927Z,8.93
2023-04-21T00:24:29.094Z,8.93
2023-04-21T00:26:58.856Z,8.91
2023-04-21T00:29:28.621Z,8.89
2023-04-21T00:31:58.426Z,8.88
2023-04-21T00:34:27.008Z,8.86
2023-04-21T00:36:55.412Z,8.84
2023-04-21T00:39:24.101Z,8.82
2023-04-21T00:41:54.036Z,8.80
2023-04-21T00:44:22.873Z,8.78
2023-04-21T00:46:51.418Z,8.77
2023-04-21T00:49:20.334Z,8.76
2023-04-21T00:51:51.299Z,8.77
2023-04-21T00:54:20.634Z,8.78
2023-04-21T00:56:49.628Z,8.79
2023-04-21T00:59:19.845Z,8.78
2023-04-21T01:01:48.425Z,8.79
2023-04-21T01:04:17.099Z,8.79
2023-04-21T01:06:46.478Z,8.79
2023-04-21T01:09:15.048Z,8.78
2023-04-21T01:11:43.524Z,8.80
2023-04-21T01:14:12.107Z,8.78
2023-04-21T01:16:42.048Z,8.79
2023-04-21T01:19:11.781Z,8.79
2023-04-21T01:21:44.776Z,8.80
2023-04-21T01:24:13.560Z,8.81
2023-04-21T01:26:42.235Z,8.79
2023-04-21T01:29:10.753Z,8.81
2023-04-21T01:31:39.328Z,8.80
2023-04-21T01:34:09.656Z,8.81
2023-04-21T01:36:38.970Z,8.81
2023-04-21T01:39:09.061Z,8.82
2023-04-21T01:41:37.727Z,8.82
2023-04-21T01:44:06.323Z,8.82
2023-04-21T01:46:34.998Z,8.81
2023-04-21T01:49:04.753Z,8.83
2023-04-21T01:51:35.068Z,8.84
2023-04-21T01:54:03.641Z,8.85
2023-04-21T01:56:33.572Z,8.85
2023-04-21T01:59:02.445Z,8.87
2023-04-21T02:01:31.320Z,8.86
2023-04-21T02:04:00.140Z,8.88
2023-04-21T02:06:28.938Z,8.88
2023-04-21T02:09:02.512Z,8.89
2023-04-21T02:11:34.630Z,8.90
2023-04-21T02:14:03.185Z,8.90
2023-04-21T02:16:51.220Z,8.89
2023-04-21T02:19:20.278Z,8.89
2023-04-21T02:21:49.187Z,8.89
2023-04-21T02:24:17.898Z,8.88
2023-04-21T02:26:48.859Z,8.88
2023-04-21T02:29:17.800Z,8.89
2023-04-21T02:31:58.923Z,8.88
2023-04-21T02:34:29.738Z,8.89
2023-04-21T02:36:59.353Z,8.89
2023-04-21T02:39:27.958Z,8.88
2023-04-21T02:41:58.407Z,8.87
2023-04-21T02:44:27.014Z,8.87
2023-04-21T02:46:55.637Z,8.88
2023-04-21T02:49:24.215Z,8.88
2023-04-21T02:51:52.729Z,8.87
2023-04-21T02:54:21.318Z,8.88
2023-04-21T02:56:50.001Z,8.88
2023-04-21T02:59:20.389Z,8.88
2023-04-21T03:01:49.235Z,8.85
2023-04-21T03:04:17.815Z,8.83
2023-04-21T03:06:46.395Z,8.81
2023-04-21T03:09:14.846Z,8.79
2023-04-21T03:11:43.361Z,8.79
2023-04-21T03:14:11.946Z,8.78
2023-04-21T03:16:41.858Z,8.77
2023-04-21T03:19:10.555Z,8.75
2023-04-21T03:21:39.972Z,8.74
2023-04-21T03:24:08.731Z,8.73
2023-04-21T03:26:37.487Z,8.71
2023-04-21T03:29:07.350Z,8.69
2023-04-21T03:31:36.020Z,8.67
2023-04-21T03:34:06.037Z,8.64
2023-04-21T03:36:34.487Z,8.60
2023-04-21T03:39:18.715Z,8.57
2023-04-21T03:41:48.247Z,8.54
2023-04-21T03:44:16.830Z,8.52
2023-04-21T03:46:45.401Z,8.50
2023-04-21T03:49:15.205Z,8.50
2023-04-21T03:51:43.668Z,8.47
2023-04-21T03:54:12.192Z,8.46
2023-04-21T03:56:40.702Z,8.46
2023-04-21T03:59:09.195Z,8.45
2023-04-21T04:01:37.762Z,8.42
2023-04-21T04:04:06.770Z,8.42
2023-04-21T04:06:36.899Z,8.41
2023-04-21T04:09:05.633Z,8.39
2023-04-21T04:11:34.235Z,8.39
2023-04-21T04:14:02.808Z,8.37
2023-04-21T04:16:31.740Z,8.37
2023-04-21T04:19:00.392Z,8.36
2023-04-21T04:21:28.938Z,8.35
2023-04-21T04:23:59.099Z,8.34
2023-04-21T04:26:27.781Z,8.33
2023-04-21T04:28:56.868Z,8.31
2023-04-21T04:31:25.804Z,8.30
2023-04-21T04:33:55.651Z,8.28
2023-04-21T04:36:24.905Z,8.26
2023-04-21T04:38:53.586Z,8.24
2023-04-21T04:41:24.206Z,8.24
2023-04-21T04:43:53.596Z,8.22
2023-04-21T04:46:24.856Z,8.20
2023-04-21T04:48:53.593Z,8.18
2023-04-21T04:51:23.256Z,8.17
2023-04-21T04:53:51.795Z,8.15
2023-04-21T04:56:20.501Z,8.15
2023-04-21T04:58:50.823Z,8.14
2023-04-21T05:01:19.610Z,8.13
2023-04-21T05:03:48.555Z,8.13
2023-04-21T05:06:17.166Z,8.10
2023-04-21T05:08:45.881Z,8.09
2023-04-21T05:11:15.078Z,8.07
2023-04-21T05:13:43.662Z,8.07
2023-04-21T05:16:13.718Z,8.04
2023-04-21T05:18:42.416Z,8.04
2023-04-21T05:21:11.089Z,8.04
2023-04-21T05:23:39.732Z,8.04
2023-04-21T05:26:08.292Z,8.04
2023-04-21T05:28:37.236Z,8.05
2023-04-21T05:31:06.935Z,8.06
2023-04-21T05:33:36.943Z,8.08
2023-04-21T05:36:09.020Z,8.11
2023-04-21T05:38:38.151Z,8.13
2023-04-21T05:41:07.385Z,8.15
2023-04-21T05:43:36.327Z,8.20
2023-04-21T05:46:11.049Z,8.25
2023-04-21T05:48:41.823Z,8.30
2023-04-21T05:51:11.595Z,8.33
2023-04-21T05:53:41.759Z,8.37
2023-04-21T05:56:11.174Z,8.42
2023-04-21T05:58:41.782Z,8.47
2023-04-21T06:01:10.326Z,8.51
2023-04-21T06:03:38.905Z,8.56
2023-04-21T06:06:10.375Z,8.60
2023-04-21T06:08:38.856Z,8.64
2023-04-21T06:11:07.397Z,8.67
2023-04-21T06:13:38.365Z,8.71
2023-04-21T06:16:07.977Z,8.75
2023-04-21T06:18:36.607Z,8.78
2023-04-21T06:21:05.809Z,8.82
2023-04-21T06:23:35.912Z,8.88
2023-04-21T06:26:06.908Z,8.91
2023-04-21T06:28:37.079Z,8.95
2023-04-21T06:31:08.761Z,8.98
2023-04-21T06:33:38.084Z,9.02
2023-04-21T06:36:07.381Z,9.09
2023-04-21T06:38:37.423Z,9.13
2023-04-21T06:41:06.616Z,9.17
2023-04-21T06:43:35.305Z,9.23
2023-04-21T06:46:04.299Z,9.27
2023-04-21T06:48:32.963Z,9.32
2023-04-21T06:51:02.793Z,9.38
2023-04-21T06:53:31.682Z,9.44
2023-04-21T06:56:01.730Z,9.49
2023-04-21T06:58:30.394Z,9.54
2023-04-21T07:00:59.063Z,9.58
2023-04-21T07:03:30.727Z,9.63
2023-04-21T07:05:59.416Z,9.68
2023-04-21T07:08:28.124Z,9.72
2023-04-21T07:10:57.021Z,9.78
2023-04-21T07:13:26.920Z,9.84
2023-04-21T07:15:55.785Z,9.90
2023-04-21T07:18:24.495Z,9.96
2023-04-21T07:20:53.101Z,10.01
2023-04-21T07:23:21.490Z,10.07
2023-04-21T07:25:49.992Z,10.12
2023-04-21T07:28:18.596Z,10.19
2023-04-21T07:30:48.604Z,10.23
2023-04-21T07:33:21.020Z,10.29
2023-04-21T07:35:49.660Z,10.34
2023-04-21T07:38:18.500Z,10.39
2023-04-21T07:40:47.090Z,10.45
2023-04-21T07:43:19.581Z,10.50
2023-04-21T07:45:52.610Z,10.56
2023-04-21T07:48:21.259Z,10.62
2023-04-21T07:50:50.453Z,10.67
2023-04-21T07:53:20.000Z,10.73
2023-04-21T07:55:48.555Z,10.79
2023-04-21T07:58:18.453Z,10.85
2023-04-21T08:00:47.331Z,10.88
2023-04-21T08:03:17.385Z,10.92
2023-04-21T08:05:46.233Z,10.95
2023-04-21T08:08:20.340Z,11.00
2023-04-21T08:10:58.911Z,11.06
2023-04-21T08:13:28.115Z,11.13
2023-04-21T08:16:00.892Z,11.19
2023-04-21T08:18:33.184Z,11.24
2023-04-21T08:21:03.244Z,11.29
2023-04-21T08:23:34.522Z,11.34
2023-04-21T08:26:07.876Z,11.38
2023-04-21T08:28:41.259Z,11.44
2023-04-21T08:31:13.578Z,11.51
2023-04-21T08:34:01.272Z,11.57
2023-04-21T08:36:38.951Z,11.63
2023-04-21T08:39:07.943Z,11.69
2023-04-21T08:41:39.786Z,11.74
2023-04-21T08:44:08.650Z,11.81
2023-04-21T08:46:37.913Z,11.89
2023-04-21T08:49:10.437Z,11.95
2023-04-21T08:51:38.990Z,12.00
2023-04-21T08:54:07.432Z,12.06
2023-04-21T08:56:37.592Z,12.12
2023-04-21T08:59:06.156Z,12.17
2023-04-21T09:01:34.660Z,12.20
2023-04-21T09:04:19.364Z,12.25
2023-04-21T09:06:49.701Z,12.31
2023-04-21T09:09:18.456Z,12.36
2023-04-21T09:11:57.200Z,12.40
2023-04-21T09:14:32.598Z,12.44
2023-04-21T09:17:02.674Z,12.48
2023-04-21T09:19:35.373Z,12.50
2023-04-21T09:22:03.914Z,12.52
2023-04-21T09:24:32.282Z,12.55
2023-04-21T09:27:04.385Z,12.59
2023-04-21T09:29:32.949Z,12.62
2023-04-21T09:32:03.171Z,12.68
2023-04-21T09:34:35.455Z,12.72
2023-04-21T09:37:06.131Z,12.77
2023-04-21T09:39:46.408Z,12.81
2023-04-21T09:42:29.299Z,12.85
2023-04-21T09:45:10.970Z,12.87
2023-04-21T09:47:52.770Z,12.92
2023-04-21T09:50:54.390Z,12.98
2023-04-21T09:53:17.580Z,13.02
2023-04-21T09:55:50.145Z,13.05
2023-04-21T09:58:23.732Z,13.07
2023-04-21T10:00:56.807Z,13.08
2023-04-21T10:03:28.763Z,13.08
2023-04-21T10:05:58.926Z,13.09
2023-04-21T10:08:29.445Z,13.08
2023-04-21T10:10:58.892Z,13.09
2023-04-21T10:13:27.848Z,13.11
2023-04-21T10:16:03.867Z,13.12
2023-04-21T10:18:33.031Z,13.17
2023-04-21T10:21:07.534Z,13.22
2023-04-21T10:23:40.834Z,13.26
2023-04-21T10:26:15.207Z,13.33
2023-04-21T10:28:59.453Z,13.43
2023-04-21T10:31:33.728Z,13.49
2023-04-21T10:34:20.043Z,13.60
2023-04-21T10:37:25.640Z,13.70
2023-04-21T10:39:57.074Z,13.77
2023-04-21T10:42:34.721Z,13.81
2023-04-21T10:45:11.810Z,13.84
2023-04-21T10:47:45.088Z,13.90
2023-04-21T10:50:18.963Z,13.98
2023-04-21T10:52:52.950Z,14.06
2023-04-21T10:55:23.437Z,14.15
2023-04-21T10:57:53.434Z,14.21
2023-04-21T11:00:24.228Z,14.26
2023-04-21T11:02:58.293Z,14.31
2023-04-21T11:05:38.769Z,14.37
2023-04-21T11:08:09.521Z,14.44
2023-04-21T11:10:53.812Z,14.48
2023-04-21T11:13:24.199Z,14.51
2023-04-21T11:16:01.636Z,14.55
2023-04-21T11:18:41.315Z,14.59
2023-04-21T11:21:11.468Z,14.65
2023-04-21T11:23:48.917Z,14.71
2023-04-21T11:26:20.261Z,14.77
2023-04-21T11:28:50.867Z,14.83
2023-04-21T11:31:19.509Z,14.89
2023-04-21T11:33:48.010Z,14.96
2023-04-21T11:36:17.740Z,15.01
2023-04-21T11:38:46.802Z,15.04
2023-04-21T11:41:23.923Z,15.13
2023-04-21T11:43:53.471Z,15.23
2023-04-21T11:46:25.730Z,15.35
2023-04-21T11:49:02.244Z,15.49
2023-04-21T11:51:34.762Z,15.62
2023-04-21T11:54:05.394Z,15.70
2023-04-21T11:56:38.956Z,15.79
2023-04-21T11:59:11.879Z,15.89
2023-04-21T12:01:46.634Z,15.98
2023-04-21T12:04:17.331Z,16.05
2023-04-21T12:06:46.502Z,16.14
2023-04-21T12:09:19.788Z,16.21
2023-04-21T12:11:52.054Z,16.28
2023-04-21T12:14:22.185Z,16.38
2023-04-21T12:16:51.770Z,16.50
2023-04-21T12:19:24.438Z,16.61
2023-04-21T12:21:55.789Z,16.74
2023-04-21T12:24:24.830Z,16.90
2023-04-21T12:26:54.964Z,17.07
2023-04-21T12:29:23.396Z,17.22
2023-04-21T12:31:54.431Z,17.31
2023-04-21T12:34:24.283Z,17.40
2023-04-21T12:36:52.852Z,17.50
2023-04-21T12:39:22.300Z,17.56
2023-04-21T12:41:51.486Z,17.61
2023-04-21T12:44:21.942Z,17.65
2023-04-21T12:46:50.709Z,17.72
2023-04-21T12:49:19.877Z,17.82
2023-04-21T12:51:50.053Z,17.91
2023-04-21T12:54:19.302Z,18.01
2023-04-21T12:56:48.418Z,18.12
2023-04-21T12:59:16.872Z,18.24
2023-04-21T13:01:46.747Z,18.29
2023-04-21T13:04:15.523Z,18.34
2023-04-21T13:06:44.162Z,18.37
2023-04-21T13:09:12.666Z,18.37
2023-04-21T13:11:41.542Z,18.38
2023-04-21T13:14:10.643Z,18.39
2023-04-21T13:16:39.236Z,18.42
2023-04-21T13:19:09.079Z,18.46
2023-04-21T13:21:37.465Z,18.51
2023-04-21T13:24:06.218Z,18.58
2023-04-21T13:26:35.278Z,18.69
2023-04-21T13:29:04.687Z,18.77
2023-04-21T13:31:33.367Z,18.84
2023-04-21T13:34:02.218Z,18.90
2023-04-21T13:36:33.566Z,18.95
2023-04-21T13:39:04.574Z,19.12
2023-04-21T13:41:33.142Z,19.32
2023-04-21T13:44:01.855Z,19.53
2023-04-21T13:46:30.408Z,19.71
2023-04-21T13:48:59.359Z,19.90
2023-04-21T13:51:30.136Z,20.09
2023-04-21T13:54:00.224Z,20.29
2023-04-21T13:56:31.980Z,20.43
2023-04-21T13:59:00.598Z,20.60
2023-04-21T14:01:29.466Z,20.82
2023-04-21T14:03:58.366Z,21.05
2023-04-21T14:06:28.083Z,21.22
2023-04-21T14:08:56.516Z,21.33
2023-04-21T14:11:27.626Z,21.41
2023-04-21T14:14:09.061Z,21.37
2023-04-21T14:16:39.116Z,21.29
2023-04-21T14:19:09.905Z,21.29
2023-04-21T14:21:38.443Z,21.30
2023-04-21T14:24:07.062Z,21.36
2023-04-21T14:26:38.457Z,21.43
2023-04-21T14:29:07.231Z,21.55
2023-04-21T14:31:36.044Z,21.73
2023-04-21T14:34:05.924Z,21.84
2023-04-21T14:36:34.527Z,21.89
2023-04-21T14:39:03.437Z,21.94
2023-04-21T14:41:31.990Z,22.05
2023-04-21T14:44:03.243Z,22.19
2023-04-21T14:46:34.548Z,22.33
2023-04-21T14:49:03.388Z,22.37
2023-04-21T14:51:32.979Z,22.39
2023-04-21T14:54:01.523Z,22.40
2023-04-21T14:56:29.922Z,22.33
2023-04-21T14:58:58.396Z,22.26
2023-04-21T15:01:28.607Z,22.23
2023-04-21T15:03:59.940Z,22.22
2023-04-21T15:06:29.181Z,22.13
2023-04-21T15:08:57.646Z,22.03
2023-04-21T15:11:26.384Z,21.89
2023-04-21T15:13:55.332Z,21.86
2023-04-21T15:16:23.899Z,21.78
2023-04-21T15:18:53.795Z,21.67
2023-04-21T15:21:22.679Z,21.51
2023-04-21T15:23:51.073Z,21.35
2023-04-21T15:26:19.850Z,21.18
2023-04-21T15:28:48.322Z,21.06
2023-04-21T15:31:18.591Z,20.96
2023-04-21T15:33:50.366Z,20.95
2023-04-21T15:36:20.209Z,21.02
2023-04-21T15:38:48.682Z,21.13
2023-04-21T15:41:17.543Z,21.12
2023-04-21T15:43:46.468Z,21.06
2023-04-21T15:46:14.945Z,21.01
2023-04-21T15:48:44.407Z,20.95
2023-04-21T15:51:14.447Z,20.85
2023-04-21T15:53:47.777Z,20.82
2023-04-21T15:56:17.233Z,20.79
2023-04-21T15:58:45.829Z,20.90
2023-04-21T16:01:14.379Z,21.04
2023-04-21T16:03:43.199Z,21.16
2023-04-21T16:06:11.897Z,21.29
2023-04-21T16:08:41.563Z,21.45
2023-04-21T16:11:11.516Z,21.65
2023-04-21T16:13:40.479Z,21.80
2023-04-21T16:16:09.868Z,21.82
2023-04-21T16:18:39.780Z,21.74
2023-04-21T16:21:08.345Z,21.68
2023-04-21T16:23:37.266Z,21.56
2023-04-21T16:26:08.181Z,21.56
2023-04-21T16:28:38.248Z,21.62
2023-04-21T16:31:07.065Z,21.75
2023-04-21T16:33:35.855Z,21.87
2023-04-21T16:36:05.022Z,21.86
2023-04-21T16:38:33.679Z,21.79
2023-04-21T16:41:02.283Z,21.65
2023-04-21T16:43:31.065Z,21.45
2023-04-21T16:46:00.988Z,21.25
2023-04-21T16:48:29.597Z,21.06
2023-04-21T16:50:58.358Z,20.92
2023-04-21T16:53:27.141Z,20.83
2023-04-21T16:55:55.844Z,20.77
2023-04-21T16:58:26.166Z,20.70
2023-04-21T17:00:54.903Z,20.60
2023-04-21T17:03:26.278Z,20.48
2023-04-21T17:05:54.923Z,20.38
2023-04-21T17:08:23.434Z,20.25
2023-04-21T17:10:52.326Z,20.14
2023-04-21T17:13:21.595Z,20.03
2023-04-21T17:15:50.179Z,19.93
2023-04-21T17:18:18.858Z,19.83
2023-04-21T17:20:50.333Z,19.76
2023-04-21T17:23:19.643Z,19.66
2023-04-21T17:25:48.225Z,19.57
2023-04-21T17:28:17.430Z,19.50
2023-04-21T17:30:46.465Z,19.43
2023-04-21T17:33:17.152Z,19.34
2023-04-21T17:36:02.367Z,19.26
2023-04-21T17:38:33.534Z,19.17
2023-04-21T17:41:03.108Z,19.09
2023-04-21T17:43:31.650Z,19.02
2023-04-21T17:46:02.625Z,18.96
2023-04-21T17:48:31.353Z,18.90
2023-04-21T17:51:00.005Z,18.84
2023-04-21T17:53:28.556Z,18.78
2023-04-21T17:55:58.781Z,18.74
2023-04-21T17:58:27.701Z,18.68
2023-04-21T18:00:57.090Z,18.62
2023-04-21T18:03:27.467Z,18.56
2023-04-21T18:05:56.630Z,18.46
2023-04-21T18:08:25.722Z,18.37
2023-04-21T18:10:55.542Z,18.29
2023-04-21T18:13:25.574Z,18.19
2023-04-21T18:15:54.308Z,18.06
2023-04-21T18:18:23.335Z,17.95
2023-04-21T18:20:52.140Z,17.86
2023-04-21T18:23:20.664Z,17.76
2023-04-21T18:25:49.393Z,17.65
2023-04-21T18:28:18.407Z,17.57
2023-04-21T18:30:48.663Z,17.47
2023-04-21T18:33:18.490Z,17.37
2023-04-21T18:35:47.153Z,17.26
2023-04-21T18:38:15.847Z,17.14
2023-04-21T18:40:44.575Z,17.02
2023-04-21T18:43:13.338Z,16.93
2023-04-21T18:45:41.869Z,16.84
2023-04-21T18:48:12.135Z,16.74
2023-04-21T18:50:41.679Z,16.64
2023-04-21T18:53:11.036Z,16.54
2023-04-21T18:55:39.796Z,16.44
2023-04-21T18:58:08.777Z,16.35
2023-04-21T19:00:39.239Z,16.25
2023-04-21T19:03:08.514Z,16.17
2023-04-21T19:05:40.582Z,16.09
2023-04-21T19:08:10.855Z,16.02
2023-04-21T19:10:40.350Z,15.96
2023-04-21T19:13:09.221Z,15.90
2023-04-21T19:15:38.571Z,15.84
2023-04-21T19:18:08.097Z,15.78
2023-04-21T19:20:41.278Z,15.73
2023-04-21T19:23:10.061Z,15.67
2023-04-21T19:25:38.815Z,15.66
2023-04-21T19:28:07.887Z,15.64
2023-04-21T19:30:36.819Z,15.61
2023-04-21T19:33:06.179Z,15.54
2023-04-21T19:35:35.146Z,15.37
2023-04-21T19:38:05.936Z,15.18
2023-04-21T19:40:35.060Z,14.99
2023-04-21T19:43:04.707Z,14.88
2023-04-21T19:45:35.152Z,14.78
2023-04-21T19:48:04.654Z,14.70
2023-04-21T19:50:40.051Z,14.59
2023-04-21T19:53:15.653Z,14.44
2023-04-21T20:04:34.506Z,13.89
2023-04-21T20:07:12.370Z,13.79
2023-04-21T20:10:15.617Z,13.66
2023-04-21T20:12:56.777Z,13.58
2023-04-21T20:15:26.975Z,13.53
2023-04-21T20:17:55.700Z,13.51
2023-04-21T20:20:24.634Z,13.49
2023-04-21T20:22:53.295Z,13.46
2023-04-21T20:25:23.350Z,13.43
2023-04-21T20:27:52.169Z,13.40
2023-04-21T20:30:21.122Z,13.38
2023-04-21T20:32:50.503Z,13.35
2023-04-21T20:35:19.343Z,13.33
2023-04-21T20:37:48.160Z,13.31
2023-04-21T20:40:18.480Z,13.28
2023-04-21T20:42:48.935Z,13.26
2023-04-21T20:45:18.486Z,13.24
2023-04-21T20:47:47.335Z,13.21
2023-04-21T20:50:16.166Z,13.15
2023-04-21T20:52:44.734Z,13.13
2023-04-21T20:55:13.705Z,13.11
2023-04-21T20:57:42.378Z,13.07
2023-04-21T21:00:13.714Z,13.05
2023-04-21T21:02:42.770Z,12.99
2023-04-21T21:05:11.589Z,12.96
2023-04-21T21:07:40.403Z,12.91
2023-04-21T21:10:11.468Z,12.86
2023-04-21T21:12:40.264Z,12.80
2023-04-21T21:15:09.665Z,12.76
2023-04-21T21:17:39.889Z,12.70
2023-04-21T21:20:09.983Z,12.64
2023-04-21T21:22:38.856Z,12.60
2023-04-21T21:25:08.109Z,12.58
2023-04-21T21:27:36.909Z,12.54
2023-04-21T21:30:06.731Z,12.48
2023-04-21T21:32:35.994Z,12.42
2023-04-21T21:35:07.625Z,12.38
2023-04-21T21:37:36.893Z,12.33
2023-04-21T21:40:06.738Z,12.27
2023-04-21T21:42:35.548Z,12.23
2023-04-21T21:45:04.273Z,12.20
2023-04-21T21:47:36.507Z,12.14
2023-04-21T21:50:11.235Z,12.09
2023-04-21T21:52:39.904Z,12.05
2023-04-21T21:55:09.618Z,12.02
2023-04-21T21:57:38.395Z,11.98
2023-04-21T22:00:13.023Z,11.94
2023-04-21T22:02:44.902Z,11.92
2023-04-21T22:05:15.109Z,11.87
2023-04-21T22:07:48.990Z,11.83
2023-04-21T22:10:17.565Z,11.78
2023-04-21T22:12:46.971Z,11.73
2023-04-21T22:15:16.734Z,11.69
2023-04-21T22:17:45.744Z,11.66
2023-04-21T22:20:17.899Z,11.61
2023-04-21T22:22:46.593Z,11.57
2023-04-21T22:25:18.404Z,11.52
2023-04-21T22:27:47.311Z,11.45
2023-04-21T22:30:16.270Z,11.41
2023-04-21T22:32:45.195Z,11.37
2023-04-21T22:35:15.446Z,11.33
2023-04-21T22:37:44.040Z,11.31
2023-04-21T22:40:13.331Z,11.29
2023-04-21T22:42:42.041Z,11.22
2023-04-21T22:45:11.296Z,11.17
2023-04-21T22:47:39.961Z,11.11
2023-04-21T22:50:10.818Z,11.05
2023-04-21T22:52:40.670Z,10.99
2023-04-21T22:55:10.248Z,10.93
2023-04-21T22:57:39.097Z,10.85
2023-04-21T23:00:09.884Z,10.79
2023-04-21T23:02:38.812Z,10.74
2023-04-21T23:05:08.575Z,10.69
2023-04-21T23:07:37.580Z,10.64
2023-04-21T23:10:08.358Z,10.62
2023-04-21T23:12:36.885Z,10.56
2023-04-21T23:15:06.166Z,10.52
2023-04-21T23:17:34.862Z,10.48
2023-04-21T23:20:05.450Z,10.45
2023-04-21T23:22:34.019Z,10.41
2023-04-21T23:25:02.587Z,10.35
2023-04-21T23:27:32.423Z,10.30
2023-04-21T23:30:01.075Z,10.24
2023-04-21T23:32:29.874Z,10.20
2023-04-21T23:34:58.644Z,10.14
2023-04-21T23:37:27.289Z,10.11
2023-04-21T23:39:56.346Z,10.08
2023-04-21T23:42:25.320Z,10.03
2023-04-21T23:44:56.106Z,10.00
2023-04-21T23:47:24.693Z,9.97
2023-04-21T23:49:53.214Z,9.94
2023-04-21T23:52:21.823Z,9.92
2023-04-21T23:54:50.714Z,9.90
2023-04-21T23:57:19.649Z,9.88
2023-04-21T23:59:48.291Z,9.86
